sensor_id;sensor_type;location;lat;lon;timestamp;temperature;humidity
6496;DHT22;3281;47.658;9.166;2024-01-11T00:01:38;2.00;99.90
6496;DHT22;3281;47.658;9.166;2024-01-11T00:04:06;2.00;99.90
6496;DHT22;3281;47.658;9.166;2024-01-11T00:06:33;2.10;99.90
6496;DHT22;3281;47.658;9.166;2024-01-11T00:09:06;2.10;99.90
6496;DHT22;3281;47.658;9.166;2024-01-11T00:11:32;2.00;99.90
6496;DHT22;3281;47.658;9.166;2024-01-11T00:13:59;2.00;99.90
6496;DHT22;3281;47.658;9.166;2024-01-11T00:16:26;2.10;99.90
6496;DHT22;3281;47.658;9.166;2024-01-11T00:18:52;2.10;99.90
6496;DHT22;3281;47.658;9.166;2024-01-11T00:21:20;2.00;99.90
6496;DHT22;3281;47.658;9.166;2024-01-11T00:23:48;2.00;99.90
6496;DHT22;3281;47.658;9.166;2024-01-11T00:26:15;2.00;99.90
6496;DHT22;3281;47.658;9.166;2024-01-11T00:28:41;2.00;99.90
6496;DHT22;3281;47.658;9.166;2024-01-11T00:31:08;2.00;99.90
6496;DHT22;3281;47.658;9.166;2024-01-11T00:33:35;2.00;99.90
6496;DHT22;3281;47.658;9.166;2024-01-11T00:36:02;2.00;99.90
6496;DHT22;3281;47.658;9.166;2024-01-11T00:38:31;1.90;99.90
6496;DHT22;3281;47.658;9.166;2024-01-11T00:40:57;1.90;99.90
6496;DHT22;3281;47.658;9.166;2024-01-11T00:43:24;1.90;99.90
6496;DHT22;3281;47.658;9.166;2024-01-11T00:45:51;1.90;99.90
6496;DHT22;3281;47.658;9.166;2024-01-11T00:48:17;1.90;99.90
6496;DHT22;3281;47.658;9.166;2024-01-11T00:50:44;1.80;99.90
6496;DHT22;3281;47.658;9.166;2024-01-11T00:53:11;1.80;99.90
6496;DHT22;3281;47.658;9.166;2024-01-11T00:55:41;1.80;99.90
6496;DHT22;3281;47.658;9.166;2024-01-11T00:58:08;1.70;99.90
6496;DHT22;3281;47.658;9.166;2024-01-11T01:00:35;1.80;99.90
6496;DHT22;3281;47.658;9.166;2024-01-11T01:03:02;1.80;99.90
6496;DHT22;3281;47.658;9.166;2024-01-11T01:05:28;1.70;99.90
6496;DHT22;3281;47.658;9.166;2024-01-11T01:07:55;1.70;99.90
6496;DHT22;3281;47.658;9.166;2024-01-11T01:10:22;1.70;99.90
6496;DHT22;3281;47.658;9.166;2024-01-11T01:12:50;1.70;99.90
6496;DHT22;3281;47.658;9.166;2024-01-11T01:15:17;1.70;99.90
6496;DHT22;3281;47.658;9.166;2024-01-11T01:17:43;1.60;99.90
6496;DHT22;3281;47.658;9.166;2024-01-11T01:20:10;1.60;99.90
6496;DHT22;3281;47.658;9.166;2024-01-11T01:22:37;1.70;99.90
6496;DHT22;3281;47.658;9.166;2024-01-11T01:25:05;1.70;99.90
6496;DHT22;3281;47.658;9.166;2024-01-11T01:27:31;1.70;99.90
6496;DHT22;3281;47.658;9.166;2024-01-11T01:29:59;1.70;99.90
6496;DHT22;3281;47.658;9.166;2024-01-11T01:32:26;1.70;99.90
6496;DHT22;3281;47.658;9.166;2024-01-11T01:34:53;1.70;99.90
6496;DHT22;3281;47.658;9.166;2024-01-11T01:37:19;1.60;99.90
6496;DHT22;3281;47.658;9.166;2024-01-11T01:39:46;1.50;99.90
6496;DHT22;3281;47.658;9.166;2024-01-11T01:42:13;1.50;99.90
6496;DHT22;3281;47.658;9.166;2024-01-11T01:44:39;1.40;99.90
6496;DHT22;3281;47.658;9.166;2024-01-11T01:47:09;1.40;99.90
6496;DHT22;3281;47.658;9.166;2024-01-11T01:49:37;1.50;99.90
6496;DHT22;3281;47.658;9.166;2024-01-11T01:52:06;1.40;99.90
6496;DHT22;3281;47.658;9.166;2024-01-11T01:54:33;1.40;99.90
6496;DHT22;3281;47.658;9.166;2024-01-11T01:57:00;1.50;99.90
6496;DHT22;3281;47.658;9.166;2024-01-11T01:59:29;1.50;99.90
6496;DHT22;3281;47.658;9.166;2024-01-11T02:01:57;1.50;99.90
6496;DHT22;3281;47.658;9.166;2024-01-11T02:04:26;1.40;99.90
6496;DHT22;3281;47.658;9.166;2024-01-11T02:06:53;1.40;99.90
6496;DHT22;3281;47.658;9.166;2024-01-11T02:09:21;1.40;99.90
6496;DHT22;3281;47.658;9.166;2024-01-11T02:11:48;1.30;99.90
6496;DHT22;3281;47.658;9.166;2024-01-11T02:14:15;1.40;99.90
6496;DHT22;3281;47.658;9.166;2024-01-11T02:16:42;1.40;99.90
6496;DHT22;3281;47.658;9.166;2024-01-11T02:19:10;1.40;99.90
6496;DHT22;3281;47.658;9.166;2024-01-11T02:21:40;1.40;99.90
6496;DHT22;3281;47.658;9.166;2024-01-11T02:24:10;1.50;99.90
6496;DHT22;3281;47.658;9.166;2024-01-11T02:26:36;1.40;99.90
6496;DHT22;3281;47.658;9.166;2024-01-11T02:29:03;1.40;99.90
6496;DHT22;3281;47.658;9.166;2024-01-11T02:31:30;1.40;99.90
6496;DHT22;3281;47.658;9.166;2024-01-11T02:33:57;1.40;99.90
6496;DHT22;3281;47.658;9.166;2024-01-11T02:36:25;1.30;99.90
6496;DHT22;3281;47.658;9.166;2024-01-11T02:38:52;1.30;99.90
6496;DHT22;3281;47.658;9.166;2024-01-11T02:41:21;1.30;99.90
6496;DHT22;3281;47.658;9.166;2024-01-11T02:43:49;1.40;99.90
6496;DHT22;3281;47.658;9.166;2024-01-11T02:46:16;1.30;99.90
6496;DHT22;3281;47.658;9.166;2024-01-11T02:48:43;1.30;99.90
6496;DHT22;3281;47.658;9.166;2024-01-11T02:51:10;1.30;99.90
6496;DHT22;3281;47.658;9.166;2024-01-11T02:53:37;1.30;99.90
6496;DHT22;3281;47.658;9.166;2024-01-11T02:56:04;1.30;99.90
6496;DHT22;3281;47.658;9.166;2024-01-11T02:58:32;1.40;99.90
6496;DHT22;3281;47.658;9.166;2024-01-11T03:00:58;1.40;99.90
6496;DHT22;3281;47.658;9.166;2024-01-11T03:03:25;1.40;99.90
6496;DHT22;3281;47.658;9.166;2024-01-11T03:05:52;1.40;99.90
6496;DHT22;3281;47.658;9.166;2024-01-11T03:08:18;1.30;99.90
6496;DHT22;3281;47.658;9.166;2024-01-11T03:10:45;1.30;99.90
6496;DHT22;3281;47.658;9.166;2024-01-11T03:13:12;1.30;99.90
6496;DHT22;3281;47.658;9.166;2024-01-11T03:15:40;1.30;99.90
6496;DHT22;3281;47.658;9.166;2024-01-11T03:18:07;1.30;99.90
6496;DHT22;3281;47.658;9.166;2024-01-11T03:20:34;1.30;99.90
6496;DHT22;3281;47.658;9.166;2024-01-11T03:23:00;1.30;99.90
6496;DHT22;3281;47.658;9.166;2024-01-11T03:25:28;1.20;99.90
6496;DHT22;3281;47.658;9.166;2024-01-11T03:27:55;1.10;99.90
6496;DHT22;3281;47.658;9.166;2024-01-11T03:30:22;1.00;99.90
6496;DHT22;3281;47.658;9.166;2024-01-11T03:32:50;1.00;99.90
6496;DHT22;3281;47.658;9.166;2024-01-11T03:35:18;1.10;99.90
6496;DHT22;3281;47.658;9.166;2024-01-11T03:37:45;1.10;99.90
6496;DHT22;3281;47.658;9.166;2024-01-11T03:40:12;1.20;99.90
6496;DHT22;3281;47.658;9.166;2024-01-11T03:42:39;1.20;99.90
6496;DHT22;3281;47.658;9.166;2024-01-11T03:45:08;1.20;99.90
6496;DHT22;3281;47.658;9.166;2024-01-11T03:47:35;1.20;99.90
6496;DHT22;3281;47.658;9.166;2024-01-11T03:50:03;1.20;99.90
6496;DHT22;3281;47.658;9.166;2024-01-11T03:52:30;1.30;99.90
6496;DHT22;3281;47.658;9.166;2024-01-11T03:54:56;1.30;99.90
6496;DHT22;3281;47.658;9.166;2024-01-11T03:57:23;1.30;99.90
6496;DHT22;3281;47.658;9.166;2024-01-11T03:59:50;1.40;99.90
6496;DHT22;3281;47.658;9.166;2024-01-11T04:02:16;1.40;99.90
6496;DHT22;3281;47.658;9.166;2024-01-11T04:04:43;1.20;99.90
6496;DHT22;3281;47.658;9.166;2024-01-11T04:07:11;1.20;99.90
6496;DHT22;3281;47.658;9.166;2024-01-11T04:09:38;1.20;99.90
6496;DHT22;3281;47.658;9.166;2024-01-11T04:12:05;1.10;99.90
6496;DHT22;3281;47.658;9.166;2024-01-11T04:14:32;1.00;99.90
6496;DHT22;3281;47.658;9.166;2024-01-11T04:16:59;1.00;99.90
6496;DHT22;3281;47.658;9.166;2024-01-11T04:19:25;0.80;99.90
6496;DHT22;3281;47.658;9.166;2024-01-11T04:21:52;0.90;99.90
6496;DHT22;3281;47.658;9.166;2024-01-11T04:24:20;0.90;99.90
6496;DHT22;3281;47.658;9.166;2024-01-11T04:26:47;0.90;99.90
6496;DHT22;3281;47.658;9.166;2024-01-11T04:29:14;1.30;99.90
6496;DHT22;3281;47.658;9.166;2024-01-11T04:31:40;0.90;99.90
6496;DHT22;3281;47.658;9.166;2024-01-11T04:34:07;0.90;99.90
6496;DHT22;3281;47.658;9.166;2024-01-11T04:36:37;0.80;99.90
6496;DHT22;3281;47.658;9.166;2024-01-11T04:39:04;0.90;99.90
6496;DHT22;3281;47.658;9.166;2024-01-11T04:41:34;0.90;99.90
6496;DHT22;3281;47.658;9.166;2024-01-11T04:44:01;0.90;99.90
6496;DHT22;3281;47.658;9.166;2024-01-11T04:46:28;0.90;99.90
6496;DHT22;3281;47.658;9.166;2024-01-11T04:48:55;0.90;99.90
6496;DHT22;3281;47.658;9.166;2024-01-11T04:51:22;0.90;99.90
6496;DHT22;3281;47.658;9.166;2024-01-11T04:53:48;1.00;99.90
6496;DHT22;3281;47.658;9.166;2024-01-11T04:56:16;1.00;99.90
6496;DHT22;3281;47.658;9.166;2024-01-11T04:58:45;1.00;99.90
6496;DHT22;3281;47.658;9.166;2024-01-11T05:01:12;0.90;99.90
6496;DHT22;3281;47.658;9.166;2024-01-11T05:03:39;1.00;99.90
6496;DHT22;3281;47.658;9.166;2024-01-11T05:06:06;1.00;99.90
6496;DHT22;3281;47.658;9.166;2024-01-11T05:08:32;1.00;99.90
6496;DHT22;3281;47.658;9.166;2024-01-11T05:10:59;0.90;99.90
6496;DHT22;3281;47.658;9.166;2024-01-11T05:13:26;0.70;99.90
6496;DHT22;3281;47.658;9.166;2024-01-11T05:15:54;0.50;99.90
6496;DHT22;3281;47.658;9.166;2024-01-11T05:18:20;0.50;99.90
6496;DHT22;3281;47.658;9.166;2024-01-11T05:20:47;0.60;99.90
6496;DHT22;3281;47.658;9.166;2024-01-11T05:23:14;0.70;99.90
6496;DHT22;3281;47.658;9.166;2024-01-11T05:25:41;0.80;99.90
6496;DHT22;3281;47.658;9.166;2024-01-11T05:28:07;0.90;99.90
6496;DHT22;3281;47.658;9.166;2024-01-11T05:30:34;0.90;99.90
6496;DHT22;3281;47.658;9.166;2024-01-11T05:33:02;0.90;99.90
6496;DHT22;3281;47.658;9.166;2024-01-11T05:35:29;0.90;99.90
6496;DHT22;3281;47.658;9.166;2024-01-11T05:37:56;0.90;99.90
6496;DHT22;3281;47.658;9.166;2024-01-11T05:40:23;0.90;99.90
6496;DHT22;3281;47.658;9.166;2024-01-11T05:42:49;0.90;99.90
6496;DHT22;3281;47.658;9.166;2024-01-11T05:45:16;1.00;99.90
6496;DHT22;3281;47.658;9.166;2024-01-11T05:47:43;0.90;99.90
6496;DHT22;3281;47.658;9.166;2024-01-11T05:50:11;0.90;99.90
6496;DHT22;3281;47.658;9.166;2024-01-11T05:52:38;0.80;99.90
6496;DHT22;3281;47.658;9.166;2024-01-11T05:55:05;0.90;99.90
6496;DHT22;3281;47.658;9.166;2024-01-11T05:57:32;0.90;99.90
6496;DHT22;3281;47.658;9.166;2024-01-11T05:59:59;0.80;99.90
6496;DHT22;3281;47.658;9.166;2024-01-11T06:02:25;0.70;99.90
6496;DHT22;3281;47.658;9.166;2024-01-11T06:04:52;0.70;99.90
6496;DHT22;3281;47.658;9.166;2024-01-11T06:07:20;0.50;99.90
6496;DHT22;3281;47.658;9.166;2024-01-11T06:09:47;0.40;99.90
6496;DHT22;3281;47.658;9.166;2024-01-11T06:12:14;0.40;99.90
6496;DHT22;3281;47.658;9.166;2024-01-11T06:14:40;0.30;99.90
6496;DHT22;3281;47.658;9.166;2024-01-11T06:17:07;0.20;99.90
6496;DHT22;3281;47.658;9.166;2024-01-11T06:19:36;0.10;99.90
6496;DHT22;3281;47.658;9.166;2024-01-11T06:22:03;0.00;99.90
6496;DHT22;3281;47.658;9.166;2024-01-11T06:24:31;0.20;99.90
6496;DHT22;3281;47.658;9.166;2024-01-11T06:26:58;0.20;99.90
6496;DHT22;3281;47.658;9.166;2024-01-11T06:29:25;0.40;99.90
6496;DHT22;3281;47.658;9.166;2024-01-11T06:31:52;0.50;99.90
6496;DHT22;3281;47.658;9.166;2024-01-11T06:34:18;0.40;99.90
6496;DHT22;3281;47.658;9.166;2024-01-11T06:36:45;0.30;99.90
6496;DHT22;3281;47.658;9.166;2024-01-11T06:39:12;0.20;99.90
6496;DHT22;3281;47.658;9.166;2024-01-11T06:41:40;0.10;99.90
6496;DHT22;3281;47.658;9.166;2024-01-11T06:44:07;0.10;99.90
6496;DHT22;3281;47.658;9.166;2024-01-11T06:46:33;0.20;99.90
6496;DHT22;3281;47.658;9.166;2024-01-11T06:49:01;0.20;99.90
6496;DHT22;3281;47.658;9.166;2024-01-11T06:51:28;0.30;99.90
6496;DHT22;3281;47.658;9.166;2024-01-11T06:53:55;0.30;99.90
6496;DHT22;3281;47.658;9.166;2024-01-11T06:56:22;0.20;99.90
6496;DHT22;3281;47.658;9.166;2024-01-11T06:58:50;0.10;99.90
6496;DHT22;3281;47.658;9.166;2024-01-11T07:01:17;0.00;99.90
6496;DHT22;3281;47.658;9.166;2024-01-11T07:03:44;0.00;99.90
6496;DHT22;3281;47.658;9.166;2024-01-11T07:06:11;0.10;99.90
6496;DHT22;3281;47.658;9.166;2024-01-11T07:08:38;0.20;99.90
6496;DHT22;3281;47.658;9.166;2024-01-11T07:11:05;0.20;99.90
6496;DHT22;3281;47.658;9.166;2024-01-11T07:13:33;0.20;99.90
6496;DHT22;3281;47.658;9.166;2024-01-11T07:16:01;0.10;99.90
6496;DHT22;3281;47.658;9.166;2024-01-11T07:18:29;0.10;99.90
6496;DHT22;3281;47.658;9.166;2024-01-11T07:20:56;0.10;99.90
6496;DHT22;3281;47.658;9.166;2024-01-11T07:23:23;0.20;99.90
6496;DHT22;3281;47.658;9.166;2024-01-11T07:25:50;0.00;99.90
6496;DHT22;3281;47.658;9.166;2024-01-11T07:28:17;0.10;99.90
6496;DHT22;3281;47.658;9.166;2024-01-11T07:30:45;0.10;99.90
6496;DHT22;3281;47.658;9.166;2024-01-11T07:33:13;0.20;99.90
6496;DHT22;3281;47.658;9.166;2024-01-11T07:35:40;0.30;99.90
6496;DHT22;3281;47.658;9.166;2024-01-11T07:38:06;0.30;99.90
6496;DHT22;3281;47.658;9.166;2024-01-11T07:40:33;0.30;99.90
6496;DHT22;3281;47.658;9.166;2024-01-11T07:43:00;0.10;99.90
6496;DHT22;3281;47.658;9.166;2024-01-11T07:45:26;0.00;99.90
6496;DHT22;3281;47.658;9.166;2024-01-11T07:47:53;-0.20;99.90
6496;DHT22;3281;47.658;9.166;2024-01-11T07:50:21;-0.10;99.90
6496;DHT22;3281;47.658;9.166;2024-01-11T07:52:48;-0.10;99.90
6496;DHT22;3281;47.658;9.166;2024-01-11T07:55:15;-0.10;99.90
6496;DHT22;3281;47.658;9.166;2024-01-11T07:57:42;-0.20;99.90
6496;DHT22;3281;47.658;9.166;2024-01-11T08:00:09;-0.20;99.90
6496;DHT22;3281;47.658;9.166;2024-01-11T08:02:36;0.10;99.90
6496;DHT22;3281;47.658;9.166;2024-01-11T08:05:03;0.20;99.90
6496;DHT22;3281;47.658;9.166;2024-01-11T08:07:31;0.30;99.90
6496;DHT22;3281;47.658;9.166;2024-01-11T08:09:58;0.30;99.90
6496;DHT22;3281;47.658;9.166;2024-01-11T08:12:25;0.30;99.90
6496;DHT22;3281;47.658;9.166;2024-01-11T08:14:52;0.30;99.90
6496;DHT22;3281;47.658;9.166;2024-01-11T08:17:19;0.30;99.90
6496;DHT22;3281;47.658;9.166;2024-01-11T08:19:45;0.40;99.90
6496;DHT22;3281;47.658;9.166;2024-01-11T08:22:12;0.40;99.90
6496;DHT22;3281;47.658;9.166;2024-01-11T08:24:40;0.40;99.90
6496;DHT22;3281;47.658;9.166;2024-01-11T08:27:07;0.30;99.90
6496;DHT22;3281;47.658;9.166;2024-01-11T08:29:34;0.30;99.90
6496;DHT22;3281;47.658;9.166;2024-01-11T08:32:01;0.40;99.90
6496;DHT22;3281;47.658;9.166;2024-01-11T08:34:29;0.60;99.90
6496;DHT22;3281;47.658;9.166;2024-01-11T08:36:56;0.50;99.90
6496;DHT22;3281;47.658;9.166;2024-01-11T08:39:23;0.50;99.90
6496;DHT22;3281;47.658;9.166;2024-01-11T08:41:51;0.50;99.90
6496;DHT22;3281;47.658;9.166;2024-01-11T08:44:18;0.50;99.90
6496;DHT22;3281;47.658;9.166;2024-01-11T08:46:45;0.50;99.90
6496;DHT22;3281;47.658;9.166;2024-01-11T08:49:11;0.50;99.90
6496;DHT22;3281;47.658;9.166;2024-01-11T08:51:38;0.60;99.90
6496;DHT22;3281;47.658;9.166;2024-01-11T08:54:06;0.60;99.90
6496;DHT22;3281;47.658;9.166;2024-01-11T08:56:34;0.60;99.90
6496;DHT22;3281;47.658;9.166;2024-01-11T08:59:03;0.40;99.90
6496;DHT22;3281;47.658;9.166;2024-01-11T09:01:29;0.40;99.90
6496;DHT22;3281;47.658;9.166;2024-01-11T09:03:57;0.50;99.90
6496;DHT22;3281;47.658;9.166;2024-01-11T09:06:24;0.50;99.90
6496;DHT22;3281;47.658;9.166;2024-01-11T09:08:51;0.60;99.90
6496;DHT22;3281;47.658;9.166;2024-01-11T09:11:17;0.60;99.90
6496;DHT22;3281;47.658;9.166;2024-01-11T09:13:44;0.60;99.90
6496;DHT22;3281;47.658;9.166;2024-01-11T09:16:15;0.50;99.90
6496;DHT22;3281;47.658;9.166;2024-01-11T09:18:42;0.20;99.90
6496;DHT22;3281;47.658;9.166;2024-01-11T09:21:10;0.30;99.90
6496;DHT22;3281;47.658;9.166;2024-01-11T09:23:37;0.20;99.90
6496;DHT22;3281;47.658;9.166;2024-01-11T09:26:04;0.30;99.90
6496;DHT22;3281;47.658;9.166;2024-01-11T09:28:31;0.40;99.90
6496;DHT22;3281;47.658;9.166;2024-01-11T09:30:58;0.40;99.90
6496;DHT22;3281;47.658;9.166;2024-01-11T09:33:26;0.30;99.90
6496;DHT22;3281;47.658;9.166;2024-01-11T09:35:54;0.30;99.90
6496;DHT22;3281;47.658;9.166;2024-01-11T09:38:21;0.20;99.90
6496;DHT22;3281;47.658;9.166;2024-01-11T09:40:56;0.10;99.90
6496;DHT22;3281;47.658;9.166;2024-01-11T09:43:27;0.10;99.90
6496;DHT22;3281;47.658;9.166;2024-01-11T09:45:54;0.30;99.90
6496;DHT22;3281;47.658;9.166;2024-01-11T09:48:26;0.40;99.90
6496;DHT22;3281;47.658;9.166;2024-01-11T09:50:54;0.50;99.90
6496;DHT22;3281;47.658;9.166;2024-01-11T09:53:21;0.60;99.90
6496;DHT22;3281;47.658;9.166;2024-01-11T09:55:50;0.60;99.90
6496;DHT22;3281;47.658;9.166;2024-01-11T09:58:18;0.70;99.90
6496;DHT22;3281;47.658;9.166;2024-01-11T10:00:46;0.80;99.90
6496;DHT22;3281;47.658;9.166;2024-01-11T10:03:14;0.90;99.90
6496;DHT22;3281;47.658;9.166;2024-01-11T10:05:43;0.90;99.90
6496;DHT22;3281;47.658;9.166;2024-01-11T10:08:11;0.70;99.90
6496;DHT22;3281;47.658;9.166;2024-01-11T10:10:38;0.70;99.90
6496;DHT22;3281;47.658;9.166;2024-01-11T10:13:05;0.70;99.90
6496;DHT22;3281;47.658;9.166;2024-01-11T10:15:32;0.50;99.90
6496;DHT22;3281;47.658;9.166;2024-01-11T10:17:59;0.60;99.90
6496;DHT22;3281;47.658;9.166;2024-01-11T10:20:25;0.50;99.90
6496;DHT22;3281;47.658;9.166;2024-01-11T10:22:56;0.20;99.90
6496;DHT22;3281;47.658;9.166;2024-01-11T10:25:23;0.00;99.90
6496;DHT22;3281;47.658;9.166;2024-01-11T10:27:50;0.20;99.90
6496;DHT22;3281;47.658;9.166;2024-01-11T10:30:17;0.40;99.90
6496;DHT22;3281;47.658;9.166;2024-01-11T10:32:46;0.60;99.90
6496;DHT22;3281;47.658;9.166;2024-01-11T10:35:13;0.70;99.90
6496;DHT22;3281;47.658;9.166;2024-01-11T10:37:39;0.70;99.90
6496;DHT22;3281;47.658;9.166;2024-01-11T10:40:09;0.80;99.90
6496;DHT22;3281;47.658;9.166;2024-01-11T10:42:40;0.80;99.90
6496;DHT22;3281;47.658;9.166;2024-01-11T10:45:13;0.80;99.90
6496;DHT22;3281;47.658;9.166;2024-01-11T10:47:50;0.80;99.90
6496;DHT22;3281;47.658;9.166;2024-01-11T10:50:18;0.80;99.90
6496;DHT22;3281;47.658;9.166;2024-01-11T10:52:54;0.80;99.90
6496;DHT22;3281;47.658;9.166;2024-01-11T10:55:24;0.60;99.90
6496;DHT22;3281;47.658;9.166;2024-01-11T10:57:53;0.50;99.90
6496;DHT22;3281;47.658;9.166;2024-01-11T11:00:20;0.70;99.90
6496;DHT22;3281;47.658;9.166;2024-01-11T11:02:48;0.60;99.90
6496;DHT22;3281;47.658;9.166;2024-01-11T11:05:16;0.80;99.90
6496;DHT22;3281;47.658;9.166;2024-01-11T11:07:47;0.90;99.90
6496;DHT22;3281;47.658;9.166;2024-01-11T11:10:14;1.00;99.90
6496;DHT22;3281;47.658;9.166;2024-01-11T11:12:45;1.00;99.90
6496;DHT22;3281;47.658;9.166;2024-01-11T11:15:12;1.00;99.90
6496;DHT22;3281;47.658;9.166;2024-01-11T11:17:40;1.00;99.90
6496;DHT22;3281;47.658;9.166;2024-01-11T11:20:08;1.10;99.90
6496;DHT22;3281;47.658;9.166;2024-01-11T11:22:37;1.10;99.90
6496;DHT22;3281;47.658;9.166;2024-01-11T11:25:08;1.10;99.90
6496;DHT22;3281;47.658;9.166;2024-01-11T11:27:35;1.00;99.90
6496;DHT22;3281;47.658;9.166;2024-01-11T11:30:04;1.00;99.90
6496;DHT22;3281;47.658;9.166;2024-01-11T11:32:37;1.00;99.90
6496;DHT22;3281;47.658;9.166;2024-01-11T11:35:05;0.70;99.90
6496;DHT22;3281;47.658;9.166;2024-01-11T11:37:36;0.60;99.90
6496;DHT22;3281;47.658;9.166;2024-01-11T11:40:03;0.70;99.90
6496;DHT22;3281;47.658;9.166;2024-01-11T11:42:30;0.90;99.90
6496;DHT22;3281;47.658;9.166;2024-01-11T11:44:57;0.90;99.90
6496;DHT22;3281;47.658;9.166;2024-01-11T11:47:33;1.00;99.90
6496;DHT22;3281;47.658;9.166;2024-01-11T11:50:05;1.10;99.90
6496;DHT22;3281;47.658;9.166;2024-01-11T11:52:33;1.10;99.90
6496;DHT22;3281;47.658;9.166;2024-01-11T11:55:01;1.00;99.90
6496;DHT22;3281;47.658;9.166;2024-01-11T11:57:29;0.70;99.90
6496;DHT22;3281;47.658;9.166;2024-01-11T11:59:56;0.60;99.90
6496;DHT22;3281;47.658;9.166;2024-01-11T12:02:26;0.50;99.90
6496;DHT22;3281;47.658;9.166;2024-01-11T12:04:53;0.50;99.90
6496;DHT22;3281;47.658;9.166;2024-01-11T12:07:20;0.60;99.90
6496;DHT22;3281;47.658;9.166;2024-01-11T12:09:48;0.50;99.90
6496;DHT22;3281;47.658;9.166;2024-01-11T12:12:15;0.50;99.90
6496;DHT22;3281;47.658;9.166;2024-01-11T12:14:43;0.60;99.90
6496;DHT22;3281;47.658;9.166;2024-01-11T12:17:10;0.60;99.90
6496;DHT22;3281;47.658;9.166;2024-01-11T12:19:38;0.70;99.90
6496;DHT22;3281;47.658;9.166;2024-01-11T12:22:05;0.60;99.90
6496;DHT22;3281;47.658;9.166;2024-01-11T12:24:32;0.60;99.90
6496;DHT22;3281;47.658;9.166;2024-01-11T12:27:00;0.50;99.90
6496;DHT22;3281;47.658;9.166;2024-01-11T12:29:28;0.50;99.90
6496;DHT22;3281;47.658;9.166;2024-01-11T12:31:57;0.60;99.90
6496;DHT22;3281;47.658;9.166;2024-01-11T12:34:24;0.50;99.90
6496;DHT22;3281;47.658;9.166;2024-01-11T12:36:53;0.50;99.90
6496;DHT22;3281;47.658;9.166;2024-01-11T12:39:20;0.70;99.90
6496;DHT22;3281;47.658;9.166;2024-01-11T12:41:49;0.80;99.90
6496;DHT22;3281;47.658;9.166;2024-01-11T12:44:17;0.90;99.90
6496;DHT22;3281;47.658;9.166;2024-01-11T12:46:47;0.90;99.90
6496;DHT22;3281;47.658;9.166;2024-01-11T12:49:14;0.80;99.90
6496;DHT22;3281;47.658;9.166;2024-01-11T12:51:41;0.90;99.90
6496;DHT22;3281;47.658;9.166;2024-01-11T12:54:12;1.00;99.90
6496;DHT22;3281;47.658;9.166;2024-01-11T12:56:43;1.10;99.90
6496;DHT22;3281;47.658;9.166;2024-01-11T12:59:10;1.20;99.90
6496;DHT22;3281;47.658;9.166;2024-01-11T13:01:38;1.20;99.90
6496;DHT22;3281;47.658;9.166;2024-01-11T13:04:04;1.20;99.90
6496;DHT22;3281;47.658;9.166;2024-01-11T13:06:32;1.50;99.90
6496;DHT22;3281;47.658;9.166;2024-01-11T13:09:00;1.30;99.90
6496;DHT22;3281;47.658;9.166;2024-01-11T13:11:28;1.40;99.90
6496;DHT22;3281;47.658;9.166;2024-01-11T13:13:55;1.30;99.90
6496;DHT22;3281;47.658;9.166;2024-01-11T13:16:24;1.30;99.90
6496;DHT22;3281;47.658;9.166;2024-01-11T13:18:51;1.40;99.90
6496;DHT22;3281;47.658;9.166;2024-01-11T13:21:18;1.40;99.90
6496;DHT22;3281;47.658;9.166;2024-01-11T13:23:45;1.50;99.90
6496;DHT22;3281;47.658;9.166;2024-01-11T13:26:11;1.40;99.90
6496;DHT22;3281;47.658;9.166;2024-01-11T13:28:39;1.40;99.90
6496;DHT22;3281;47.658;9.166;2024-01-11T13:31:07;1.40;99.90
6496;DHT22;3281;47.658;9.166;2024-01-11T13:33:36;1.40;99.90
6496;DHT22;3281;47.658;9.166;2024-01-11T13:36:03;1.40;99.90
6496;DHT22;3281;47.658;9.166;2024-01-11T13:38:30;1.40;99.90
6496;DHT22;3281;47.658;9.166;2024-01-11T13:40:57;1.50;99.90
6496;DHT22;3281;47.658;9.166;2024-01-11T13:43:23;1.50;99.90
6496;DHT22;3281;47.658;9.166;2024-01-11T13:45:51;1.50;99.90
6496;DHT22;3281;47.658;9.166;2024-01-11T13:48:19;1.50;99.90
6496;DHT22;3281;47.658;9.166;2024-01-11T13:50:46;1.40;99.90
6496;DHT22;3281;47.658;9.166;2024-01-11T13:53:13;1.40;99.90
6496;DHT22;3281;47.658;9.166;2024-01-11T13:55:40;1.50;99.90
6496;DHT22;3281;47.658;9.166;2024-01-11T13:58:07;1.50;99.90
6496;DHT22;3281;47.658;9.166;2024-01-11T14:00:33;1.50;99.90
6496;DHT22;3281;47.658;9.166;2024-01-11T14:03:01;1.50;99.90
6496;DHT22;3281;47.658;9.166;2024-01-11T14:05:29;1.50;99.90
6496;DHT22;3281;47.658;9.166;2024-01-11T14:07:55;1.40;99.90
6496;DHT22;3281;47.658;9.166;2024-01-11T14:10:24;1.50;99.90
6496;DHT22;3281;47.658;9.166;2024-01-11T14:12:51;1.40;99.90
6496;DHT22;3281;47.658;9.166;2024-01-11T14:15:17;1.40;99.90
6496;DHT22;3281;47.658;9.166;2024-01-11T14:17:44;1.50;99.90
6496;DHT22;3281;47.658;9.166;2024-01-11T14:20:12;1.40;99.90
6496;DHT22;3281;47.658;9.166;2024-01-11T14:22:40;1.30;99.90
6496;DHT22;3281;47.658;9.166;2024-01-11T14:25:08;1.20;99.90
6496;DHT22;3281;47.658;9.166;2024-01-11T14:27:36;1.30;99.90
6496;DHT22;3281;47.658;9.166;2024-01-11T14:30:04;1.40;99.90
6496;DHT22;3281;47.658;9.166;2024-01-11T14:32:31;1.30;99.90
6496;DHT22;3281;47.658;9.166;2024-01-11T14:34:58;1.40;99.90
6496;DHT22;3281;47.658;9.166;2024-01-11T14:37:30;1.30;99.90
6496;DHT22;3281;47.658;9.166;2024-01-11T14:39:57;1.20;99.90
6496;DHT22;3281;47.658;9.166;2024-01-11T14:42:24;1.10;99.90
6496;DHT22;3281;47.658;9.166;2024-01-11T14:44:51;1.10;99.90
6496;DHT22;3281;47.658;9.166;2024-01-11T14:47:18;1.20;99.90
6496;DHT22;3281;47.658;9.166;2024-01-11T14:49:45;1.20;99.90
6496;DHT22;3281;47.658;9.166;2024-01-11T14:52:12;1.20;99.90
6496;DHT22;3281;47.658;9.166;2024-01-11T14:54:40;1.20;99.90
6496;DHT22;3281;47.658;9.166;2024-01-11T14:57:08;1.20;99.90
6496;DHT22;3281;47.658;9.166;2024-01-11T14:59:34;1.20;99.90
6496;DHT22;3281;47.658;9.166;2024-01-11T15:02:01;1.30;99.90
6496;DHT22;3281;47.658;9.166;2024-01-11T15:04:30;1.30;99.90
6496;DHT22;3281;47.658;9.166;2024-01-11T15:06:56;1.10;99.90
6496;DHT22;3281;47.658;9.166;2024-01-11T15:09:23;1.00;99.90
6496;DHT22;3281;47.658;9.166;2024-01-11T15:11:52;1.10;99.90
6496;DHT22;3281;47.658;9.166;2024-01-11T15:14:19;1.20;99.90
6496;DHT22;3281;47.658;9.166;2024-01-11T15:16:46;1.20;99.90
6496;DHT22;3281;47.658;9.166;2024-01-11T15:19:13;1.20;99.90
6496;DHT22;3281;47.658;9.166;2024-01-11T15:21:40;1.30;99.90
6496;DHT22;3281;47.658;9.166;2024-01-11T15:24:07;1.30;99.90
6496;DHT22;3281;47.658;9.166;2024-01-11T15:26:34;1.30;99.90
6496;DHT22;3281;47.658;9.166;2024-01-11T15:29:02;1.30;99.90
6496;DHT22;3281;47.658;9.166;2024-01-11T15:31:28;1.30;99.90
6496;DHT22;3281;47.658;9.166;2024-01-11T15:33:55;1.30;99.90
6496;DHT22;3281;47.658;9.166;2024-01-11T15:36:23;1.30;99.90
6496;DHT22;3281;47.658;9.166;2024-01-11T15:38:52;1.30;99.90
6496;DHT22;3281;47.658;9.166;2024-01-11T15:41:19;1.40;99.90
6496;DHT22;3281;47.658;9.166;2024-01-11T15:43:46;1.30;99.90
6496;DHT22;3281;47.658;9.166;2024-01-11T15:46:16;1.40;99.90
6496;DHT22;3281;47.658;9.166;2024-01-11T15:48:42;1.30;99.90
6496;DHT22;3281;47.658;9.166;2024-01-11T15:51:09;1.40;99.90
6496;DHT22;3281;47.658;9.166;2024-01-11T15:53:36;1.40;99.90
6496;DHT22;3281;47.658;9.166;2024-01-11T15:56:03;1.50;99.90
6496;DHT22;3281;47.658;9.166;2024-01-11T15:58:30;1.50;99.90
6496;DHT22;3281;47.658;9.166;2024-01-11T16:00:56;1.40;99.90
6496;DHT22;3281;47.658;9.166;2024-01-11T16:03:25;1.40;99.90
6496;DHT22;3281;47.658;9.166;2024-01-11T16:05:51;1.40;99.90
6496;DHT22;3281;47.658;9.166;2024-01-11T16:08:18;1.50;99.90
6496;DHT22;3281;47.658;9.166;2024-01-11T16:10:45;1.50;99.90
6496;DHT22;3281;47.658;9.166;2024-01-11T16:13:12;1.50;99.90
6496;DHT22;3281;47.658;9.166;2024-01-11T16:15:38;1.50;99.90
6496;DHT22;3281;47.658;9.166;2024-01-11T16:18:05;1.50;99.90